createdAt,value
2023-04-18T00:01:56.843Z,49.72
2023-04-18T00:04:27.014Z,58.92
2023-04-18T00:06:55.845Z,54.88
2023-04-18T00:09:24.638Z,54.92
2023-04-18T00:11:52.958Z,53.15
2023-04-18T00:14:21.282Z,54.15
2023-04-18T00:16:49.737Z,52.53
2023-04-18T00:19:18.416Z,45.08
2023-04-18T00:21:48.123Z,54.67
2023-04-18T00:24:16.736Z,50.63
2023-04-18T00:26:44.858Z,53.60
2023-04-18T00:29:13.023Z,49.00
2023-04-18T00:31:41.079Z,55.20
2023-04-18T00:34:09.382Z,51.58
2023-04-18T00:36:37.644Z,48.50
2023-04-18T00:39:07.614Z,51.17
2023-04-18T00:41:36.178Z,48.50
2023-04-18T00:44:04.963Z,55.22
2023-04-18T00:46:33.408Z,47.63
2023-04-18T00:49:02.155Z,54.55
2023-04-18T00:51:30.561Z,53.40
2023-04-18T00:53:58.764Z,50.65
2023-04-18T00:56:28.813Z,53.50
2023-04-18T00:59:00.070Z,50.95
2023-04-18T01:01:28.514Z,44.40
2023-04-18T01:03:56.952Z,49.88
2023-04-18T01:06:25.363Z,58.45
2023-04-18T01:08:54.044Z,48.85
2023-04-18T01:11:22.217Z,55.55
2023-04-18T01:14:02.181Z,54.70
2023-04-18T01:16:32.849Z,50.53
2023-04-18T01:19:01.092Z,50.55
2023-04-18T01:21:31.269Z,49.03
2023-04-18T01:24:04.549Z,48.30
2023-04-18T01:26:34.333Z,49.08
2023-04-18T01:29:06.388Z,43.28
2023-04-18T01:31:35.565Z,45.92
2023-04-18T01:34:03.708Z,49.53
2023-04-18T01:36:32.010Z,45.65
2023-04-18T01:39:00.827Z,54.05
2023-04-18T01:41:32.787Z,53.03
2023-04-18T01:44:02.677Z,42.78
2023-04-18T01:46:31.071Z,41.63
2023-04-18T01:49:00.884Z,46.30
2023-04-18T01:51:29.029Z,42.75
2023-04-18T01:53:57.177Z,42.28
2023-04-18T01:56:25.862Z,60.03
2023-04-18T01:58:53.952Z,43.88
2023-04-18T02:01:25.399Z,49.53
2023-04-18T02:03:54.274Z,60.47
2023-04-18T02:06:22.654Z,61.08
2023-04-18T02:08:50.913Z,51.58
2023-04-18T02:11:19.245Z,60.55
2023-04-18T02:13:47.361Z,52.75
2023-04-18T02:16:15.830Z,42.10
2023-04-18T02:18:46.538Z,51.53
2023-04-18T02:21:15.408Z,44.55
2023-04-18T02:23:43.433Z,48.42
2023-04-18T02:26:11.651Z,48.58
2023-04-18T02:28:40.150Z,55.08
2023-04-18T02:31:14.567Z,56.03
2023-04-18T02:33:43.542Z,46.28
2023-04-18T02:36:14.062Z,47.72
2023-04-18T02:38:44.989Z,52.67
2023-04-18T02:41:17.519Z,55.17
2023-04-18T02:43:45.585Z,50.65
2023-04-18T02:46:15.568Z,64.45
2023-04-18T02:48:46.407Z,58.10
2023-04-18T02:51:17.681Z,47.25
2023-04-18T02:53:47.311Z,63.53
2023-04-18T02:56:18.912Z,64.80
2023-04-18T02:59:08.161Z,93.78
2023-04-18T03:01:54.941Z,73.60
2023-04-18T03:04:24.196Z,58.42
2023-04-18T03:06:59.385Z,74.82
2023-04-18T03:09:29.687Z,57.88
2023-04-18T03:12:03.488Z,65.78
2023-04-18T03:14:33.070Z,58.53
2023-04-18T03:17:01.385Z,50.50
2023-04-18T03:19:36.541Z,53.22
2023-04-18T03:22:10.680Z,58.28
2023-04-18T03:24:46.104Z,55.78
2023-04-18T03:27:14.610Z,43.90
2023-04-18T03:29:44.668Z,46.28
2023-04-18T03:32:13.312Z,49.67
2023-04-18T03:34:41.838Z,85.38
2023-04-18T03:37:12.348Z,53.00
2023-04-18T03:39:46.598Z,52.42
2023-04-18T03:42:15.247Z,73.78
2023-04-18T03:44:44.446Z,59.38
2023-04-18T03:47:14.642Z,59.60
2023-04-18T03:49:45.347Z,61.83
2023-04-18T03:52:16.135Z,81.07
2023-04-18T03:54:44.412Z,69.32
2023-04-18T03:57:18.222Z,90.20
2023-04-18T03:59:47.934Z,61.40
2023-04-18T04:02:17.031Z,64.97
2023-04-18T04:04:45.529Z,56.42
2023-04-18T04:07:15.218Z,42.03
2023-04-18T04:09:43.620Z,56.33
2023-04-18T04:12:11.719Z,84.40
2023-04-18T04:14:40.460Z,62.55
2023-04-18T04:17:08.591Z,59.40
2023-04-18T04:19:37.949Z,63.33
2023-04-18T04:22:11.010Z,70.38
2023-04-18T04:24:43.032Z,59.83
2023-04-18T04:27:14.137Z,74.63
2023-04-18T04:29:43.876Z,80.40
2023-04-18T04:32:12.965Z,63.85
2023-04-18T04:34:42.379Z,72.68
2023-04-18T04:37:14.110Z,60.63
2023-04-18T04:40:01.111Z,54.90
2023-04-18T04:42:54.546Z,53.03
2023-04-18T04:45:33.228Z,51.03
2023-04-18T04:48:02.163Z,44.03
2023-04-18T04:50:30.403Z,53.92
2023-04-18T04:52:58.571Z,53.05
2023-04-18T04:55:28.289Z,55.80
2023-04-18T04:57:57.483Z,51.45
2023-04-18T05:00:39.849Z,50.47
2023-04-18T05:03:09.254Z,58.65
2023-04-18T05:05:37.635Z,67.90
2023-04-18T05:08:06.519Z,55.38
2023-04-18T05:10:37.186Z,69.05
2023-04-18T05:13:06.263Z,72.00
2023-04-18T05:15:34.683Z,73.40
2023-04-18T05:18:03.289Z,71.03
2023-04-18T05:20:31.556Z,60.28
2023-04-18T05:23:00.379Z,63.90
2023-04-18T05:25:29.919Z,80.07
2023-04-18T05:28:01.504Z,68.53
2023-04-18T05:30:30.026Z,81.80
2023-04-18T05:32:58.261Z,73.30
2023-04-18T05:35:26.836Z,93.32
2023-04-18T05:37:55.030Z,78.25
2023-04-18T05:40:23.639Z,55.47
2023-04-18T05:42:51.738Z,63.72
2023-04-18T05:45:21.398Z,49.22
2023-04-18T05:47:49.517Z,51.60
2023-04-18T05:50:18.104Z,48.63
2023-04-18T05:52:46.400Z,57.90
2023-04-18T05:55:14.627Z,50.67
2023-04-18T05:57:43.118Z,69.25
2023-04-18T06:00:12.933Z,50.90
2023-04-18T06:02:43.395Z,60.72
2023-04-18T06:05:12.273Z,68.55
2023-04-18T06:07:40.887Z,52.42
2023-04-18T06:10:13.413Z,50.72
2023-04-18T06:12:42.063Z,53.63
2023-04-18T06:15:12.085Z,68.43
2023-04-18T06:17:40.349Z,64.35
2023-04-18T06:20:11.089Z,66.15
2023-04-18T06:22:39.686Z,52.33
2023-04-18T06:25:10.247Z,53.25
2023-04-18T06:27:39.445Z,62.08
2023-04-18T06:30:08.909Z,49.55
2023-04-18T06:32:37.161Z,53.20
2023-04-18T06:35:06.337Z,49.05
2023-04-18T06:37:36.075Z,44.42
2023-04-18T06:40:05.022Z,52.45
2023-04-18T06:42:33.566Z,59.65
2023-04-18T06:45:04.896Z,69.35
2023-04-18T06:47:34.158Z,56.92
2023-04-18T06:50:02.312Z,63.47
2023-04-18T06:52:30.939Z,49.53
2023-04-18T06:55:00.920Z,48.13
2023-04-18T06:57:29.621Z,40.08
2023-04-18T06:59:57.742Z,41.83
2023-04-18T07:02:26.617Z,47.58
2023-04-18T07:04:54.855Z,42.65
2023-04-18T07:07:23.641Z,48.85
2023-04-18T07:09:52.862Z,49.90
2023-04-18T07:12:22.737Z,44.25
2023-04-18T07:14:52.457Z,42.45
2023-04-18T07:17:20.864Z,47.85
2023-04-18T07:19:49.691Z,43.15
2023-04-18T07:22:17.872Z,42.17
2023-04-18T07:24:47.033Z,41.75
2023-04-18T07:27:16.130Z,39.40
2023-04-18T07:29:45.890Z,41.17
2023-04-18T07:32:14.330Z,45.83
2023-04-18T07:34:42.856Z,51.30
2023-04-18T07:37:14.122Z,51.28
2023-04-18T07:39:43.218Z,60.95
2023-04-18T07:42:11.473Z,42.28
2023-04-18T07:44:40.368Z,48.35
2023-04-18T07:47:11.174Z,44.60
2023-04-18T07:49:40.544Z,46.50
2023-04-18T07:52:09.082Z,40.05
2023-04-18T07:54:37.757Z,46.58
2023-04-18T07:57:06.828Z,44.00
2023-04-18T07:59:35.432Z,37.05
2023-04-18T08:02:04.248Z,38.00
2023-04-18T08:04:33.932Z,40.33
2023-04-18T08:07:02.241Z,42.38
2023-04-18T08:09:30.878Z,41.75
2023-04-18T08:12:00.590Z,39.42
2023-04-18T08:14:29.120Z,42.58
2023-04-18T08:16:57.732Z,36.55
2023-04-18T08:19:26.399Z,35.20
2023-04-18T08:22:07.885Z,46.60
2023-04-18T08:24:36.343Z,35.03
2023-04-18T08:27:04.996Z,38.45
2023-04-18T08:29:33.343Z,34.28
2023-04-18T08:32:03.254Z,36.70
2023-04-18T08:34:34.177Z,36.35
2023-04-18T08:37:03.932Z,42.67
2023-04-18T08:39:32.348Z,41.20
2023-04-18T08:42:01.849Z,41.20
2023-04-18T08:44:30.799Z,36.90
2023-04-18T08:47:02.329Z,36.72
2023-04-18T08:49:32.106Z,35.33
2023-04-18T08:52:02.703Z,42.50
2023-04-18T08:54:32.894Z,38.65
2023-04-18T08:57:07.557Z,33.92
2023-04-18T08:59:37.075Z,34.10
2023-04-18T09:02:10.235Z,39.30
2023-04-18T09:04:41.529Z,40.13
2023-04-18T09:07:11.726Z,35.97
2023-04-18T09:09:48.960Z,36.67
2023-04-18T09:12:19.749Z,38.10
2023-04-18T09:14:48.642Z,36.08
2023-04-18T09:17:33.523Z,36.70
2023-04-18T09:20:05.193Z,39.63
2023-04-18T09:22:51.494Z,33.92
2023-04-18T09:25:29.499Z,36.30
2023-04-18T09:28:01.289Z,47.53
2023-04-18T09:30:35.307Z,44.63
2023-04-18T09:33:05.067Z,35.92
2023-04-18T09:35:33.805Z,39.47
2023-04-18T09:38:02.157Z,43.20
2023-04-18T09:40:31.826Z,48.10
2023-04-18T09:43:00.628Z,39.10
2023-04-18T09:45:28.859Z,35.20
2023-04-18T09:47:57.670Z,45.50
2023-04-18T09:50:26.076Z,41.10
2023-04-18T09:52:56.155Z,42.53
2023-04-18T09:55:24.498Z,46.25
2023-04-18T09:57:55.065Z,51.38
2023-04-18T10:00:26.670Z,37.42
2023-04-18T10:02:59.635Z,45.92
2023-04-18T10:05:30.256Z,52.58
2023-04-18T10:07:59.186Z,52.70
2023-04-18T10:10:28.342Z,43.15
2023-04-18T10:13:01.179Z,45.35
2023-04-18T10:15:32.231Z,44.25
2023-04-18T10:18:05.752Z,41.63
2023-04-18T10:20:36.427Z,36.90
2023-04-18T10:23:36.201Z,39.20
2023-04-18T10:26:05.663Z,38.40
2023-04-18T10:28:56.843Z,42.97
2023-04-18T10:31:27.227Z,45.15
2023-04-18T10:34:04.027Z,45.83
2023-04-18T10:36:34.189Z,46.55
2023-04-18T10:39:04.657Z,45.70
2023-04-18T10:41:35.080Z,45.78
2023-04-18T10:44:28.927Z,50.90
2023-04-18T10:47:23.316Z,45.45
2023-04-18T10:50:01.432Z,44.15
2023-04-18T10:52:30.676Z,49.95
2023-04-18T10:55:18.661Z,44.90
2023-04-18T10:57:48.693Z,50.13
2023-04-18T11:00:22.102Z,44.95
2023-04-18T11:02:53.860Z,44.33
2023-04-18T11:05:24.599Z,39.95
2023-04-18T11:07:53.021Z,42.83
2023-04-18T11:10:23.891Z,42.58
2023-04-18T11:12:52.800Z,48.80
2023-04-18T11:15:24.799Z,43.88
2023-04-18T11:17:58.514Z,39.88
2023-04-18T11:20:27.473Z,38.80
2023-04-18T11:22:57.556Z,38.17
2023-04-18T11:25:28.336Z,38.35
2023-04-18T11:28:00.634Z,42.92
2023-04-18T11:30:38.536Z,48.30
2023-04-18T11:33:08.491Z,39.92
2023-04-18T11:35:41.476Z,33.58
2023-04-18T11:38:11.837Z,33.67
2023-04-18T11:40:40.563Z,33.00
2023-04-18T11:43:09.107Z,31.70
2023-04-18T11:45:38.819Z,27.98
2023-04-18T11:48:07.231Z,28.60
2023-04-18T11:50:38.282Z,25.60
2023-04-18T11:53:06.744Z,29.80
2023-04-18T11:55:35.521Z,33.45
2023-04-18T11:58:04.483Z,26.83
2023-04-18T12:00:35.453Z,28.17
2023-04-18T12:03:08.442Z,25.23
2023-04-18T12:05:40.106Z,29.02
2023-04-18T12:08:09.841Z,30.08
2023-04-18T12:10:39.357Z,29.00
2023-04-18T12:13:09.562Z,27.27
2023-04-18T12:15:40.040Z,30.67
2023-04-18T12:18:09.875Z,30.33
2023-04-18T12:20:39.998Z,29.40
2023-04-18T12:23:08.455Z,29.65
2023-04-18T12:25:37.275Z,27.42
2023-04-18T12:28:15.961Z,32.80
2023-04-18T12:30:44.050Z,25.30
2023-04-18T12:33:13.688Z,26.90
2023-04-18T12:35:42.655Z,29.35
2023-04-18T12:38:11.228Z,28.30
2023-04-18T12:40:40.662Z,35.17
2023-04-18T12:43:11.075Z,28.13
2023-04-18T12:45:39.927Z,29.20
2023-04-18T12:48:08.390Z,32.85
2023-04-18T12:50:38.510Z,29.63
2023-04-18T12:53:18.233Z,25.03
2023-04-18T13:00:39.638Z,24.58
2023-04-18T13:03:10.351Z,30.02
2023-04-18T13:05:42.186Z,26.88
2023-04-18T13:11:54.557Z,28.00
2023-04-18T13:14:24.392Z,32.38
2023-04-18T13:16:53.233Z,30.58
2023-04-18T13:19:22.503Z,33.72
2023-04-18T13:21:53.337Z,35.40
2023-04-18T13:24:22.061Z,36.63
2023-04-18T13:26:50.780Z,32.47
2023-04-18T13:29:21.679Z,34.35
2023-04-18T13:31:55.026Z,32.65
2023-04-18T13:34:23.691Z,35.15
2023-04-18T13:36:53.991Z,35.85
2023-04-18T13:39:24.718Z,42.88
2023-04-18T13:41:54.706Z,53.13
2023-04-18T13:44:24.906Z,39.60
2023-04-18T13:46:54.595Z,36.13
2023-04-18T13:49:22.818Z,34.83
2023-04-18T13:51:53.694Z,30.92
2023-04-18T13:54:24.714Z,37.13
2023-04-18T13:56:53.125Z,35.33
2023-04-18T13:59:21.530Z,39.50
2023-04-18T14:01:50.822Z,37.85
2023-04-18T14:04:19.564Z,44.92
2023-04-18T14:06:48.914Z,43.45
2023-04-18T14:09:17.470Z,41.63
2023-04-18T14:11:48.078Z,50.47
2023-04-18T14:14:16.378Z,46.70
2023-04-18T14:16:44.792Z,50.78
2023-04-18T14:19:13.467Z,45.33
2023-04-18T14:21:42.059Z,47.70
2023-04-18T14:27:33.010Z,48.40
2023-04-18T14:30:01.807Z,38.65
2023-04-18T14:32:31.558Z,40.15
2023-04-18T14:35:00.259Z,47.03
2023-04-18T14:37:28.352Z,53.70
2023-04-18T14:39:56.887Z,47.30
2023-04-18T14:42:25.138Z,49.95
2023-04-18T14:44:55.618Z,49.58
2023-04-18T14:47:27.016Z,49.65
2023-04-18T14:49:55.256Z,43.13
2023-04-18T14:52:23.451Z,46.03
2023-04-18T14:54:52.607Z,52.97
2023-04-18T14:57:47.483Z,53.75
2023-04-18T15:00:19.239Z,56.33
2023-04-18T15:02:47.985Z,59.63
2023-04-18T15:05:17.940Z,61.17
2023-04-18T15:07:47.078Z,55.28
2023-04-18T15:10:15.364Z,59.13
2023-04-18T15:12:43.751Z,58.30
2023-04-18T15:15:12.699Z,60.17
2023-04-18T15:17:42.499Z,58.85
2023-04-18T15:20:11.373Z,53.22
2023-04-18T15:22:39.660Z,64.85
2023-04-18T15:25:08.535Z,56.40
2023-04-18T15:27:36.621Z,57.15
2023-04-18T15:30:08.629Z,64.57
2023-04-18T15:32:38.990Z,64.25
2023-04-18T15:35:10.220Z,64.22
2023-04-18T15:37:40.231Z,65.22
2023-04-18T15:40:11.757Z,56.42
2023-04-18T15:42:41.067Z,67.18
2023-04-18T15:45:13.663Z,60.75
2023-04-18T15:51:49.188Z,59.75
2023-04-18T15:54:17.913Z,68.82
2023-04-18T15:56:46.531Z,61.03
2023-04-18T15:59:14.979Z,70.03
2023-04-18T16:01:45.653Z,68.75
2023-04-18T16:04:15.324Z,77.57
2023-04-18T16:06:55.097Z,64.40
2023-04-18T16:09:24.261Z,60.92
2023-04-18T16:11:52.660Z,56.75
2023-04-18T16:14:21.144Z,45.40
2023-04-18T16:16:49.880Z,71.13
2023-04-18T16:19:19.599Z,46.45
2023-04-18T16:21:49.117Z,55.72
2023-04-18T16:24:19.407Z,47.97
2023-04-18T16:26:47.845Z,51.88
2023-04-18T16:29:16.088Z,46.58
2023-04-18T16:31:44.720Z,42.95
2023-04-18T16:34:13.204Z,50.78
2023-04-18T16:36:43.302Z,48.83
2023-04-18T16:39:11.623Z,55.97
2023-04-18T16:41:41.078Z,52.17
2023-04-18T16:44:09.931Z,55.13
2023-04-18T16:46:38.203Z,52.55
2023-04-18T16:49:06.528Z,50.70
2023-04-18T16:51:36.271Z,55.92
2023-04-18T16:54:05.218Z,58.03
2023-04-18T16:56:33.548Z,50.28
2023-04-18T16:59:04.141Z,55.45
2023-04-18T17:01:34.144Z,60.25
2023-04-18T17:04:04.496Z,57.00
2023-04-18T17:06:33.289Z,53.65
2023-04-18T17:09:02.334Z,55.55
2023-04-18T17:11:32.554Z,55.22
2023-04-18T17:14:01.816Z,56.70
2023-04-18T17:16:32.124Z,46.88
2023-04-18T17:19:51.352Z,50.15
2023-04-18T17:22:19.812Z,50.88
2023-04-18T17:24:48.141Z,52.22
2023-04-18T17:27:17.137Z,56.47
2023-04-18T17:29:45.777Z,52.40
2023-04-18T17:32:15.758Z,57.83
2023-04-18T17:34:44.470Z,47.83
2023-04-18T17:37:12.692Z,50.33
2023-04-18T17:39:41.541Z,54.08
2023-04-18T17:42:10.512Z,51.03
2023-04-18T17:44:39.849Z,46.95
2023-04-18T17:47:08.216Z,51.30
2023-04-18T17:49:37.733Z,51.53
2023-04-18T17:52:07.060Z,52.80
2023-04-18T17:54:35.211Z,50.40
2023-04-18T17:57:04.664Z,44.33
2023-04-18T17:59:38.005Z,47.83
2023-04-18T18:02:06.799Z,54.55
2023-04-18T18:04:35.415Z,54.83
2023-04-18T18:07:06.432Z,49.45
2023-04-18T18:09:34.836Z,56.40
2023-04-18T18:12:04.252Z,48.40
2023-04-18T18:14:32.502Z,45.50
2023-04-18T18:17:01.189Z,47.20
2023-04-18T18:19:29.931Z,53.03
2023-04-18T18:21:58.003Z,50.88
2023-04-18T18:24:28.131Z,50.60
2023-04-18T18:26:58.223Z,47.55
2023-04-18T18:29:26.858Z,49.10
2023-04-18T18:31:55.120Z,49.35
2023-04-18T18:34:23.454Z,52.13
2023-04-18T18:36:51.694Z,52.70
2023-04-18T18:39:20.233Z,44.85
2023-04-18T18:41:49.720Z,55.00
2023-04-18T18:44:18.067Z,55.78
2023-04-18T18:46:46.193Z,46.50
2023-04-18T18:49:14.525Z,41.78
2023-04-18T18:51:44.500Z,42.97
2023-04-18T18:54:13.348Z,54.85
2023-04-18T18:56:42.733Z,49.92
2023-04-18T18:59:12.719Z,53.63
2023-04-18T19:01:41.513Z,47.40
2023-04-18T19:04:09.686Z,51.17
2023-04-18T19:06:38.326Z,52.90
2023-04-18T19:09:07.536Z,43.28
2023-04-18T19:11:35.841Z,52.70
2023-04-18T19:14:04.185Z,43.78
2023-04-18T19:16:34.195Z,49.92
2023-04-18T19:19:05.611Z,49.30
2023-04-18T19:22:00.635Z,47.70
2023-04-18T19:24:28.857Z,44.55
2023-04-18T19:26:56.972Z,55.15
2023-04-18T19:29:25.370Z,44.88
2023-04-18T19:31:55.142Z,46.22
2023-04-18T19:34:24.031Z,45.03
2023-04-18T19:36:52.335Z,46.60
2023-04-18T19:39:21.426Z,49.78
2023-04-18T19:41:49.745Z,47.38
2023-04-18T19:44:17.857Z,41.03
2023-04-18T19:46:46.082Z,43.80
2023-04-18T19:49:15.870Z,48.65
2023-04-18T19:51:44.761Z,49.85
2023-04-18T19:54:13.352Z,42.42
2023-04-18T19:56:41.414Z,48.30
2023-04-18T19:59:09.899Z,42.20
2023-04-18T20:01:38.104Z,48.03
2023-04-18T20:04:08.380Z,43.65
2023-04-18T20:06:37.894Z,49.42
2023-04-18T20:09:08.666Z,40.35
2023-04-18T20:11:37.341Z,45.63
2023-04-18T20:14:05.735Z,47.45
2023-04-18T20:16:34.617Z,51.58
2023-04-18T20:19:03.942Z,44.60
2023-04-18T20:21:32.613Z,44.88
2023-04-18T20:24:03.513Z,45.60
2023-04-18T20:26:31.642Z,51.60
2023-04-18T20:29:00.227Z,43.08
2023-04-18T20:31:29.105Z,52.40
2023-04-18T20:33:57.516Z,49.38
2023-04-18T20:36:25.796Z,50.42
2023-04-18T20:38:54.173Z,48.95
2023-04-18T20:41:26.487Z,47.67
2023-04-18T20:43:54.930Z,46.13
2023-04-18T20:46:23.310Z,47.97
2023-04-18T20:48:51.626Z,42.30
2023-04-18T20:51:19.817Z,44.50
2023-04-18T20:53:48.108Z,45.55
2023-04-18T20:56:16.092Z,40.70
2023-04-18T20:58:46.817Z,44.17
2023-04-18T21:01:15.252Z,46.53
2023-04-18T21:03:44.059Z,37.55
2023-04-18T21:06:12.369Z,42.47
2023-04-18T21:08:40.669Z,43.13
2023-04-18T21:11:09.078Z,49.20
2023-04-18T21:13:38.572Z,39.42
2023-04-18T21:16:10.558Z,41.75
2023-04-18T21:18:39.011Z,41.38
2023-04-18T21:21:07.577Z,45.67
2023-04-18T21:23:42.832Z,45.22
2023-04-18T21:26:13.417Z,37.30
2023-04-18T21:28:59.001Z,39.75
2023-04-18T21:31:31.888Z,42.97
2023-04-18T21:34:01.597Z,46.83
2023-04-18T21:36:30.983Z,45.33
2023-04-18T21:39:00.529Z,45.92
2023-04-18T21:41:29.180Z,45.08
2023-04-18T21:43:57.355Z,49.88
2023-04-18T21:46:25.583Z,47.65
2023-04-18T21:48:55.525Z,46.55
2023-04-18T21:51:23.803Z,40.17
2023-04-18T21:53:52.121Z,42.35
2023-04-18T21:56:20.277Z,42.45
2023-04-18T21:58:48.721Z,45.53
2023-04-18T22:01:17.285Z,45.85
2023-04-18T22:03:46.316Z,39.97
2023-04-18T22:06:17.455Z,48.97
2023-04-18T22:08:45.614Z,46.63
2023-04-18T22:11:16.055Z,46.58
2023-04-18T22:13:44.864Z,41.60
2023-04-18T22:16:24.622Z,50.70
2023-04-18T22:18:53.093Z,49.88
2023-04-18T22:21:22.903Z,55.78
2023-04-18T22:23:51.291Z,58.72
2023-04-18T22:26:19.489Z,49.28
2023-04-18T22:28:48.186Z,45.83
2023-04-18T22:31:16.831Z,46.80
2023-04-18T22:33:47.852Z,56.83
2023-04-18T22:36:16.535Z,50.28
2023-04-18T22:38:45.965Z,49.72
2023-04-18T22:41:14.159Z,47.10
2023-04-18T22:43:42.422Z,46.85
2023-04-18T22:46:11.647Z,53.10
2023-04-18T22:48:39.925Z,47.53
2023-04-18T22:51:08.033Z,49.88
2023-04-18T22:53:36.137Z,52.30
2023-04-18T22:56:06.659Z,56.58
2023-04-18T22:58:34.773Z,48.88
2023-04-18T23:01:03.660Z,57.60
2023-04-18T23:03:34.441Z,53.60
2023-04-18T23:06:02.913Z,54.10
2023-04-18T23:08:31.616Z,46.17
2023-04-18T23:10:59.886Z,52.25
2023-04-18T23:13:29.393Z,47.85
2023-04-18T23:15:57.685Z,54.47
2023-04-18T23:18:26.289Z,44.13
2023-04-18T23:20:54.389Z,46.72
2023-04-18T23:23:22.479Z,44.08
2023-04-18T23:25:50.741Z,51.00
2023-04-18T23:28:18.944Z,43.78
2023-04-18T23:30:50.273Z,41.20
2023-04-18T23:33:18.359Z,41.40
2023-04-18T23:35:46.670Z,46.90
2023-04-18T23:38:15.075Z,44.38
2023-04-18T23:40:43.094Z,43.33
2023-04-18T23:43:11.287Z,48.72
2023-04-18T23:45:39.479Z,39.97
2023-04-18T23:48:09.276Z,44.88
2023-04-18T23:50:38.155Z,42.60
2023-04-18T23:53:07.679Z,40.30
2023-04-18T23:55:35.705Z,40.28
2023-04-18T23:58:03.940Z,41.10
